Time;durP1;ratioP1;P1;durP2;ratioP2;P2;SDS_P1;SDS_P2;PMS_P1;PMS_P2;Temp;Humidity;BMP_temperature;BMP_pressure;BME280_temperature;BME280_humidity;BME280_pressure;Samples;Min_cycle;Max_cycle;Signal;HPM_P1;HPM_P2
2022/03/06 00:00:07;;;;;;;16.88;11.55;;;0.60;99.50;;;;;;5028088;28;20448;-79
2022/03/06 00:02:33;;;;;;;19.23;12.00;;;0.60;99.60;;;;;;5044704;28;20033;-78
2022/03/06 00:04:58;;;;;;;16.17;11.23;;;0.70;99.50;;;;;;5034410;28;20049;-79
2022/03/06 00:07:24;;;;;;;17.50;11.73;;;0.70;99.10;;;;;;5036925;28;20486;-79
2022/03/06 00:09:50;;;;;;;16.92;11.30;;;0.80;98.80;;;;;;5052739;28;20104;-79
2022/03/06 00:12:15;;;;;;;22.65;11.68;;;0.80;98.60;;;;;;5037237;28;20116;-79
2022/03/06 00:14:41;;;;;;;22.58;14.52;;;0.80;98.60;;;;;;5039264;28;20029;-79
2022/03/06 00:17:06;;;;;;;20.33;12.23;;;0.80;98.80;;;;;;5035640;28;20038;-79
2022/03/06 00:19:32;;;;;;;19.77;12.65;;;0.80;99.00;;;;;;5026195;28;20094;-79
2022/03/06 00:21:57;;;;;;;20.52;13.07;;;0.80;99.30;;;;;;5023976;28;20036;-79
2022/03/06 00:24:23;;;;;;;20.05;13.07;;;0.80;99.60;;;;;;5035835;28;20036;-79
2022/03/06 00:26:48;;;;;;;19.00;13.25;;;0.70;99.90;;;;;;5029739;28;20129;-80
2022/03/06 00:29:14;;;;;;;17.50;11.77;;;0.70;99.90;;;;;;5036044;28;20474;-79
2022/03/06 00:31:39;;;;;;;16.85;11.57;;;0.70;99.90;;;;;;5053245;28;20513;-80
2022/03/06 00:34:05;;;;;;;21.52;14.35;;;0.70;99.90;;;;;;5051820;28;20032;-80
2022/03/06 00:36:31;;;;;;;18.42;12.20;;;0.60;99.90;;;;;;5034766;28;20029;-79
2022/03/06 00:38:57;;;;;;;17.30;11.35;;;0.60;99.90;;;;;;5037697;28;20053;-79
2022/03/06 00:41:23;;;;;;;17.30;11.63;;;0.50;99.90;;;;;;5035406;28;20443;-79
2022/03/06 00:43:49;;;;;;;18.85;11.95;;;0.50;99.90;;;;;;5028075;28;20018;-80
2022/03/06 00:46:14;;;;;;;17.85;12.05;;;0.40;99.90;;;;;;5032801;28;20074;-79
2022/03/06 00:48:40;;;;;;;26.25;17.48;;;0.40;99.90;;;;;;5050762;28;20470;-79
2022/03/06 00:51:06;;;;;;;18.80;12.68;;;0.40;99.90;;;;;;5046186;28;20022;-79
2022/03/06 00:53:32;;;;;;;18.90;12.82;;;0.30;99.90;;;;;;5032556;28;20128;-79
2022/03/06 00:55:57;;;;;;;18.50;12.32;;;0.30;99.90;;;;;;5027596;28;20049;-79
2022/03/06 00:58:23;;;;;;;21.55;12.57;;;0.30;99.90;;;;;;5038390;28;20108;-79
2022/03/06 01:00:49;;;;;;;21.65;13.23;;;0.30;99.90;;;;;;5056771;28;20021;-79
2022/03/06 01:03:16;;;;;;;18.73;11.50;;;0.30;99.90;;;;;;5055398;28;20386;-79
2022/03/06 01:05:43;;;;;;;18.08;12.65;;;0.30;99.90;;;;;;5040418;28;20025;-79
2022/03/06 01:08:09;;;;;;;18.80;12.07;;;0.20;99.90;;;;;;5038248;28;20022;-78
2022/03/06 01:10:37;;;;;;;19.58;11.50;;;0.20;99.90;;;;;;5055369;28;20029;-79
2022/03/06 01:13:04;;;;;;;18.20;12.60;;;0.10;99.90;;;;;;5030129;28;20026;-79
2022/03/06 01:15:29;;;;;;;19.70;12.93;;;0.10;99.90;;;;;;5056825;28;20029;-79
2022/03/06 01:17:55;;;;;;;20.98;12.85;;;0.10;99.90;;;;;;5034824;28;20040;-78
2022/03/06 01:20:23;;;;;;;22.27;13.57;;;0.10;99.90;;;;;;5037721;28;20508;-80
2022/03/06 01:22:49;;;;;;;16.92;11.52;;;0.00;99.90;;;;;;5041299;28;20031;-78
2022/03/06 01:25:14;;;;;;;21.15;13.20;;;0.00;99.90;;;;;;5037395;28;20025;-77
2022/03/06 01:27:40;;;;;;;22.05;12.32;;;0.00;99.90;;;;;;5050245;28;20029;-79
2022/03/06 01:30:08;;;;;;;17.13;11.63;;;0.00;99.90;;;;;;5051187;28;20018;-79
2022/03/06 01:32:34;;;;;;;17.25;10.85;;;0.00;99.90;;;;;;5058009;28;20048;-79
2022/03/06 01:35:00;;;;;;;17.02;12.13;;;-0.10;99.90;;;;;;5054142;28;20053;-78
2022/03/06 01:37:26;;;;;;;16.80;10.82;;;0.00;99.90;;;;;;5076332;28;20030;-79
2022/03/06 01:39:52;;;;;;;20.23;11.95;;;-0.10;99.90;;;;;;5054995;28;20033;-79
2022/03/06 01:42:18;;;;;;;19.70;11.68;;;-0.10;99.90;;;;;;5050409;28;20061;-79
2022/03/06 01:44:46;;;;;;;20.35;12.82;;;-0.20;99.90;;;;;;5063896;28;20013;-79
2022/03/06 01:47:12;;;;;;;18.23;12.30;;;-0.20;99.90;;;;;;5075099;28;20105;-80
2022/03/06 01:49:37;;;;;;;17.83;11.93;;;-0.30;99.90;;;;;;5062617;28;20022;-78
2022/03/06 01:52:03;;;;;;;19.75;12.60;;;-0.30;99.90;;;;;;5034592;28;20025;-79
2022/03/06 01:54:29;;;;;;;18.98;12.10;;;-0.30;99.90;;;;;;5036604;28;20092;-79
2022/03/06 01:56:55;;;;;;;19.33;12.15;;;-0.30;99.90;;;;;;5047413;28;20036;-79
2022/03/06 01:59:23;;;;;;;20.85;12.13;;;-0.30;99.90;;;;;;5052262;28;20044;-78
2022/03/06 02:01:48;;;;;;;18.60;12.43;;;-0.30;99.90;;;;;;5045973;28;20032;-79
2022/03/06 02:04:14;;;;;;;19.70;12.77;;;-0.30;99.90;;;;;;5051672;28;20052;-79
2022/03/06 02:06:39;;;;;;;15.85;11.77;;;-0.40;99.90;;;;;;5049983;28;20010;-79
2022/03/06 02:09:05;;;;;;;19.20;11.30;;;-0.50;99.90;;;;;;5074722;28;20094;-78
2022/03/06 02:11:31;;;;;;;17.60;11.68;;;-0.50;99.90;;;;;;5051335;28;20051;-79
2022/03/06 02:13:58;;;;;;;19.77;12.77;;;-0.40;99.90;;;;;;5055982;28;20037;-79
2022/03/06 02:16:24;;;;;;;20.00;13.27;;;-0.40;99.90;;;;;;5053203;28;20025;-78
2022/03/06 02:18:49;;;;;;;22.27;12.40;;;-0.40;99.90;;;;;;5032087;28;20888;-78
2022/03/06 02:21:15;;;;;;;18.70;10.68;;;-0.60;99.90;;;;;;5032821;28;20667;-78
2022/03/06 02:23:41;;;;;;;19.05;14.05;;;-0.60;99.90;;;;;;5026458;28;20382;-79
2022/03/06 02:26:08;;;;;;;15.43;11.00;;;-0.60;99.90;;;;;;5035447;28;20033;-78
2022/03/06 02:28:34;;;;;;;20.77;12.95;;;-0.60;99.90;;;;;;5038583;28;20021;-80
2022/03/06 02:31:00;;;;;;;17.85;11.50;;;-0.60;99.90;;;;;;5053727;28;20025;-78
2022/03/06 02:33:26;;;;;;;17.63;11.20;;;-0.60;99.90;;;;;;5050975;28;20061;-78
2022/03/06 02:35:52;;;;;;;18.77;12.48;;;-0.60;99.90;;;;;;5036576;28;20037;-78
2022/03/06 02:38:18;;;;;;;18.60;11.82;;;-0.60;99.90;;;;;;5038837;28;20034;-79
2022/03/06 02:40:44;;;;;;;18.67;12.32;;;-0.60;99.90;;;;;;5038527;28;20025;-78
2022/03/06 02:43:12;;;;;;;18.98;12.68;;;-0.70;99.90;;;;;;5052423;28;20067;-78
2022/03/06 02:45:40;;;;;;;17.15;11.75;;;-0.60;99.90;;;;;;5051958;28;20389;-79
2022/03/06 02:48:06;;;;;;;17.38;11.85;;;-0.70;99.90;;;;;;5052670;28;20033;-79
2022/03/06 02:50:34;;;;;;;19.67;11.90;;;-0.70;99.90;;;;;;5027294;28;20030;-79
2022/03/06 02:53:02;;;;;;;22.85;12.82;;;-0.70;99.90;;;;;;5033633;28;20029;-77
2022/03/06 02:55:28;;;;;;;25.00;12.50;;;-0.70;99.90;;;;;;5042815;28;20029;-79
2022/03/06 02:57:54;;;;;;;22.02;13.00;;;-0.70;99.90;;;;;;5036430;28;20025;-78
2022/03/06 03:00:21;;;;;;;22.70;12.57;;;-0.80;99.90;;;;;;5032442;28;20026;-77
2022/03/06 03:02:48;;;;;;;17.88;12.02;;;-0.80;99.90;;;;;;5046464;28;20067;-79
2022/03/06 03:05:15;;;;;;;26.00;12.80;;;-0.80;99.90;;;;;;5049064;28;20025;-79
2022/03/06 03:07:44;;;;;;;17.00;11.55;;;-0.90;99.90;;;;;;5044568;28;20029;-78
2022/03/06 03:10:12;;;;;;;20.40;12.70;;;-0.90;99.90;;;;;;5027548;28;20036;-78
2022/03/06 03:12:38;;;;;;;20.85;12.02;;;-1.00;99.90;;;;;;5024452;28;20034;-78
2022/03/06 03:15:05;;;;;;;17.65;11.93;;;-1.00;99.90;;;;;;5026223;28;20517;-78
2022/03/06 03:17:30;;;;;;;19.02;12.32;;;-1.00;99.90;;;;;;5033877;28;20022;-79
2022/03/06 03:19:56;;;;;;;17.67;11.68;;;-1.00;99.90;;;;;;5025824;28;20033;-78
2022/03/06 03:22:21;;;;;;;19.55;12.48;;;-0.80;99.90;;;;;;5030940;28;20022;-79
2022/03/06 03:24:47;;;;;;;20.60;12.75;;;-0.80;99.90;;;;;;5028943;28;20026;-79
2022/03/06 03:27:12;;;;;;;18.35;11.93;;;-0.80;99.90;;;;;;5040593;28;20049;-79
2022/03/06 03:29:38;;;;;;;21.92;12.45;;;-0.80;99.90;;;;;;5032410;28;20018;-79
2022/03/06 03:32:04;;;;;;;17.33;11.95;;;-0.80;99.90;;;;;;5049551;28;20094;-79
2022/03/06 03:34:30;;;;;;;20.42;12.07;;;-0.90;99.90;;;;;;5031215;28;20021;-79
2022/03/06 03:36:55;;;;;;;20.95;13.57;;;-0.90;99.90;;;;;;5054320;28;20026;-78
2022/03/06 03:39:21;;;;;;;17.13;11.27;;;-0.90;99.90;;;;;;5048878;28;20445;-78
2022/03/06 03:41:46;;;;;;;22.63;12.32;;;-0.90;99.90;;;;;;5049664;28;20029;-78
2022/03/06 03:44:12;;;;;;;20.38;13.10;;;-1.00;99.90;;;;;;5022891;28;20026;-78
2022/03/06 03:46:38;;;;;;;18.77;11.50;;;-1.00;99.90;;;;;;5027659;28;20080;-80
2022/03/06 03:49:03;;;;;;;19.33;13.15;;;-0.90;99.90;;;;;;5028600;28;20018;-77
2022/03/06 03:51:30;;;;;;;18.00;11.35;;;-1.00;99.90;;;;;;5034938;28;20025;-77
2022/03/06 03:53:55;;;;;;;19.05;11.82;;;-1.00;99.90;;;;;;5038222;28;20036;-77
2022/03/06 03:56:21;;;;;;;18.65;10.88;;;-1.00;99.90;;;;;;5046977;28;20037;-77
2022/03/06 03:58:47;;;;;;;18.52;11.60;;;-1.00;99.90;;;;;;5051728;28;20037;-77
2022/03/06 04:01:12;;;;;;;18.73;11.45;;;-1.00;99.90;;;;;;5058161;28;20040;-77
2022/03/06 04:03:38;;;;;;;16.42;11.23;;;-1.10;99.90;;;;;;5066643;28;20029;-76
2022/03/06 04:06:04;;;;;;;20.25;13.48;;;-1.10;99.90;;;;;;5050925;28;20045;-77
2022/03/06 04:08:30;;;;;;;18.52;11.50;;;-1.10;99.90;;;;;;5053784;28;20009;-77
2022/03/06 04:10:59;;;;;;;23.10;12.45;;;-1.00;99.90;;;;;;5067672;28;20107;-77
2022/03/06 04:13:25;;;;;;;18.00;11.85;;;-1.10;99.90;;;;;;5040754;28;20021;-77
2022/03/06 04:15:50;;;;;;;17.13;11.20;;;-1.00;99.90;;;;;;5051409;28;20108;-78
2022/03/06 04:18:16;;;;;;;20.48;13.07;;;-1.00;99.90;;;;;;5041072;28;20060;-80
2022/03/06 04:20:41;;;;;;;19.85;12.48;;;-1.00;99.90;;;;;;5039890;28;20037;-78
2022/03/06 04:23:08;;;;;;;18.02;11.75;;;-1.10;99.90;;;;;;5033812;28;20025;-78
2022/03/06 04:25:34;;;;;;;16.88;11.85;;;-1.10;99.90;;;;;;5033977;28;20554;-77
2022/03/06 04:28:00;;;;;;;17.85;12.05;;;-1.20;99.90;;;;;;5035759;28;20026;-80
2022/03/06 04:30:26;;;;;;;17.98;11.65;;;-1.20;99.90;;;;;;5050523;28;20477;-79
2022/03/06 04:32:52;;;;;;;17.60;11.00;;;-1.20;99.90;;;;;;5032030;28;20049;-78
2022/03/06 04:35:18;;;;;;;16.95;12.07;;;-1.20;99.90;;;;;;5031956;28;20072;-78
2022/03/06 04:37:44;;;;;;;18.33;11.20;;;-1.30;99.90;;;;;;5037052;28;20021;-78
2022/03/06 04:40:10;;;;;;;16.95;12.18;;;-1.20;99.90;;;;;;5034592;28;20026;-77
2022/03/06 04:42:36;;;;;;;20.27;12.40;;;-1.20;99.90;;;;;;5048295;28;20133;-78
2022/03/06 04:45:02;;;;;;;18.73;11.43;;;-1.20;99.90;;;;;;5034605;28;20056;-77
2022/03/06 04:47:27;;;;;;;21.17;13.18;;;-1.20;99.90;;;;;;5035296;28;20021;-77
2022/03/06 04:49:53;;;;;;;17.80;11.93;;;-1.10;99.90;;;;;;5031595;28;20498;-77
2022/03/06 04:52:18;;;;;;;19.13;11.88;;;-1.10;99.90;;;;;;5028602;28;20021;-77
2022/03/06 04:54:44;;;;;;;19.58;13.18;;;-1.10;99.90;;;;;;5045877;28;20037;-76
2022/03/06 04:57:09;;;;;;;20.65;12.23;;;-1.20;99.90;;;;;;5033164;28;20038;-77
2022/03/06 04:59:35;;;;;;;18.67;12.23;;;-1.20;99.90;;;;;;5036718;28;20048;-78
2022/03/06 05:02:01;;;;;;;18.05;11.55;;;-1.20;99.90;;;;;;5028415;28;20425;-78
2022/03/06 05:04:26;;;;;;;18.05;11.70;;;-1.20;99.90;;;;;;5033683;28;20021;-77
2022/03/06 05:06:52;;;;;;;19.23;12.07;;;-1.20;99.90;;;;;;5038004;28;20025;-78
2022/03/06 05:09:17;;;;;;;19.45;12.55;;;-1.30;99.90;;;;;;5038505;28;20032;-78
2022/03/06 05:11:43;;;;;;;15.63;11.18;;;-1.40;99.90;;;;;;5030660;28;20022;-78
2022/03/06 05:14:09;;;;;;;21.95;12.45;;;-1.50;1.00;;;;;;5031799;28;20026;-78
2022/03/06 05:16:34;;;;;;;18.92;12.70;;;-1.50;1.00;;;;;;5044564;28;20025;-79
2022/03/06 05:19:00;;;;;;;18.92;11.38;;;-1.50;1.00;;;;;;5029463;28;20040;-78
2022/03/06 05:21:26;;;;;;;19.52;12.38;;;-1.50;1.00;;;;;;5040421;28;20048;-78
2022/03/06 05:23:51;;;;;;;17.55;11.55;;;-1.50;1.00;;;;;;5031191;28;20024;-78
2022/03/06 05:26:17;;;;;;;20.02;12.43;;;-1.50;1.00;;;;;;5036349;28;20093;-79
2022/03/06 05:28:43;;;;;;;21.60;13.57;;;-1.50;99.90;;;;;;5037846;28;20117;-78
2022/03/06 05:31:09;;;;;;;21.35;12.93;;;-1.50;99.90;;;;;;5039170;28;20026;-78
2022/03/06 05:33:35;;;;;;;22.88;13.07;;;-1.60;99.90;;;;;;5047492;28;20041;-77
2022/03/06 05:36:01;;;;;;;20.13;12.00;;;-1.50;99.90;;;;;;5031108;28;20044;-78
2022/03/06 05:38:26;;;;;;;17.40;12.70;;;-1.50;99.90;;;;;;5029912;28;20034;-78
2022/03/06 05:40:52;;;;;;;21.60;13.75;;;-1.40;99.90;;;;;;5035854;28;20451;-78
2022/03/06 05:43:17;;;;;;;20.40;13.57;;;-1.40;99.90;;;;;;5039536;28;20052;-79
2022/03/06 05:45:44;;;;;;;22.08;12.80;;;-1.30;99.90;;;;;;5041092;28;20105;-79
2022/03/06 05:48:10;;;;;;;24.50;13.05;;;-1.20;99.90;;;;;;5043870;28;20021;-78
2022/03/06 05:50:36;;;;;;;20.70;12.43;;;-1.20;99.90;;;;;;5056150;28;20639;-78
2022/03/06 05:53:02;;;;;;;21.42;13.75;;;-1.10;99.90;;;;;;5036321;28;20033;-78
2022/03/06 05:55:30;;;;;;;21.02;13.70;;;-1.10;99.90;;;;;;5036551;28;20112;-79
2022/03/06 05:57:56;;;;;;;18.45;12.88;;;-1.10;99.90;;;;;;5043965;28;20057;-77
2022/03/06 06:00:22;;;;;;;20.15;12.15;;;-1.00;99.90;;;;;;5040233;28;20022;-77
2022/03/06 06:02:47;;;;;;;23.30;13.32;;;-1.00;99.90;;;;;;5035350;28;20033;-79
2022/03/06 06:05:15;;;;;;;18.00;11.68;;;-1.00;99.90;;;;;;5041922;28;20120;-79
2022/03/06 06:07:40;;;;;;;21.38;13.45;;;-1.00;99.90;;;;;;5051158;28;20713;-79
2022/03/06 06:10:07;;;;;;;21.77;13.20;;;-0.90;99.90;;;;;;5060100;28;20025;-80
2022/03/06 06:12:32;;;;;;;20.98;14.32;;;-0.80;99.90;;;;;;5037249;28;20021;-78
2022/03/06 06:14:58;;;;;;;19.90;12.75;;;-0.80;99.90;;;;;;5039461;28;20041;-77
2022/03/06 06:17:24;;;;;;;18.55;12.88;;;-0.80;99.90;;;;;;5040004;28;20030;-78
2022/03/06 06:19:49;;;;;;;18.98;12.07;;;-0.80;99.90;;;;;;5037062;28;20026;-79
2022/03/06 06:22:15;;;;;;;19.63;12.93;;;-0.70;99.90;;;;;;5056117;28;20033;-79
2022/03/06 06:24:40;;;;;;;20.73;12.52;;;-0.80;99.90;;;;;;5043469;28;20032;-78
2022/03/06 06:27:06;;;;;;;20.20;12.55;;;-0.80;99.90;;;;;;5057276;28;20041;-78
2022/03/06 06:29:32;;;;;;;19.95;12.35;;;-0.70;99.90;;;;;;5029755;28;20029;-79
2022/03/06 06:31:58;;;;;;;26.33;15.30;;;-0.70;99.90;;;;;;5032460;28;20017;-77
2022/03/06 06:34:24;;;;;;;18.63;13.23;;;-0.60;99.90;;;;;;5039836;28;20022;-77
2022/03/06 06:36:50;;;;;;;19.92;12.82;;;-0.60;99.90;;;;;;5038695;28;20026;-79
2022/03/06 06:39:15;;;;;;;21.25;13.32;;;-0.60;99.90;;;;;;5049551;28;20026;-78
2022/03/06 06:41:42;;;;;;;19.00;11.45;;;-0.60;99.90;;;;;;5052991;28;20067;-78
2022/03/06 06:44:08;;;;;;;15.57;12.00;;;-0.50;99.90;;;;;;5035939;28;20106;-79
2022/03/06 06:46:34;;;;;;;18.00;12.70;;;-0.50;99.90;;;;;;5035617;28;20037;-78
2022/03/06 06:49:00;;;;;;;20.23;13.00;;;-0.40;99.90;;;;;;5035058;28;20063;-78
2022/03/06 06:51:30;;;;;;;23.67;16.35;;;-0.30;99.90;;;;;;5040038;28;20679;-78
2022/03/06 06:53:56;;;;;;;25.10;15.63;;;-0.30;99.90;;;;;;5053868;28;20040;-79
2022/03/06 06:56:21;;;;;;;19.65;13.43;;;-0.20;99.90;;;;;;5053318;28;20303;-80
2022/03/06 06:58:47;;;;;;;28.67;15.10;;;0.00;99.90;;;;;;5041374;28;20026;-78
2022/03/06 07:01:15;;;;;;;24.88;15.30;;;0.00;99.90;;;;;;5052447;28;20021;-79
2022/03/06 07:03:40;;;;;;;20.80;13.52;;;0.10;99.90;;;;;;5056759;28;20025;-77
2022/03/06 07:06:06;;;;;;;18.63;12.65;;;0.20;99.90;;;;;;5057731;28;20032;-78
2022/03/06 07:08:31;;;;;;;21.23;13.00;;;0.30;99.90;;;;;;5032999;28;20024;-78
2022/03/06 07:10:57;;;;;;;21.58;13.80;;;0.40;99.90;;;;;;5037430;28;20057;-78
2022/03/06 07:13:22;;;;;;;17.98;12.82;;;0.50;99.90;;;;;;5048270;28;20025;-78
2022/03/06 07:15:48;;;;;;;19.98;13.27;;;0.60;99.90;;;;;;5040398;28;20089;-79
2022/03/06 07:18:13;;;;;;;20.10;12.10;;;0.70;99.90;;;;;;5053066;28;20112;-78
2022/03/06 07:20:40;;;;;;;17.05;12.30;;;0.80;99.90;;;;;;5029168;28;20030;-80
2022/03/06 07:23:05;;;;;;;17.25;12.77;;;1.10;99.90;;;;;;5038007;28;20490;-78
2022/03/06 07:25:31;;;;;;;18.05;12.18;;;1.20;99.90;;;;;;5053098;28;20029;-78
2022/03/06 07:27:57;;;;;;;19.38;11.82;;;1.10;99.90;;;;;;5058065;28;20026;-79
2022/03/06 07:30:23;;;;;;;18.48;12.73;;;1.10;99.90;;;;;;5041868;28;20071;-77
2022/03/06 07:32:50;;;;;;;19.13;12.50;;;1.30;99.90;;;;;;5034354;28;20073;-81
2022/03/06 07:35:18;;;;;;;18.40;13.65;;;1.40;99.90;;;;;;5058644;28;20029;-78
2022/03/06 07:37:44;;;;;;;18.38;12.00;;;1.30;99.90;;;;;;5037561;28;20110;-78
2022/03/06 07:40:12;;;;;;;18.88;13.50;;;1.60;99.90;;;;;;5051459;28;20559;-78
2022/03/06 07:42:38;;;;;;;19.98;13.40;;;1.70;99.90;;;;;;5052651;28;20497;-79
2022/03/06 07:45:05;;;;;;;16.95;11.93;;;1.80;99.90;;;;;;5041033;28;20436;-78
2022/03/06 07:47:30;;;;;;;20.73;13.30;;;1.90;99.90;;;;;;5054737;28;20044;-79
2022/03/06 07:49:56;;;;;;;20.33;13.18;;;2.10;99.90;;;;;;5057894;28;20026;-77
2022/03/06 07:52:22;;;;;;;18.60;12.25;;;2.20;99.90;;;;;;5038290;28;20024;-78
2022/03/06 07:54:47;;;;;;;17.65;12.65;;;2.00;99.90;;;;;;5029553;28;20018;-79
2022/03/06 07:57:13;;;;;;;21.58;14.07;;;2.00;99.90;;;;;;5038194;28;20032;-80
2022/03/06 07:59:39;;;;;;;17.50;12.95;;;2.10;99.90;;;;;;5048352;28;20045;-80
2022/03/06 08:02:05;;;;;;;17.65;13.23;;;2.20;99.90;;;;;;5052066;28;20029;-80
2022/03/06 08:04:30;;;;;;;18.52;13.10;;;2.30;99.90;;;;;;5041537;28;20048;-79
2022/03/06 08:06:56;;;;;;;18.42;13.15;;;2.20;99.90;;;;;;5049396;28;20038;-79
2022/03/06 08:09:24;;;;;;;16.95;12.73;;;2.20;99.90;;;;;;5053214;28;20490;-79
2022/03/06 08:11:50;;;;;;;17.40;12.40;;;2.50;99.90;;;;;;5037450;28;20390;-79
2022/03/06 08:14:16;;;;;;;17.85;12.82;;;2.60;99.90;;;;;;5030839;28;20052;-78
2022/03/06 08:16:41;;;;;;;16.35;12.38;;;2.80;99.90;;;;;;5034546;28;20021;-78
2022/03/06 08:19:07;;;;;;;17.13;12.82;;;2.90;99.90;;;;;;5053987;28;20055;-78
2022/03/06 08:21:32;;;;;;;15.32;11.45;;;2.90;99.90;;;;;;5029094;28;20050;-78
2022/03/06 08:23:58;;;;;;;17.83;11.65;;;2.90;99.90;;;;;;5054365;28;20048;-78
2022/03/06 08:26:24;;;;;;;18.70;13.18;;;3.00;99.90;;;;;;5057366;28;20064;-79
2022/03/06 08:28:50;;;;;;;17.95;11.88;;;3.00;99.90;;;;;;5043725;28;20124;-78
2022/03/06 08:31:16;;;;;;;23.27;13.82;;;3.00;99.90;;;;;;5040322;28;20449;-78
2022/03/06 08:33:41;;;;;;;16.52;12.07;;;3.10;99.90;;;;;;5050049;28;20089;-78
2022/03/06 08:36:07;;;;;;;16.40;12.10;;;3.10;99.90;;;;;;5059303;28;20029;-79
2022/03/06 08:38:33;;;;;;;20.15;12.35;;;3.30;99.90;;;;;;5032446;28;20135;-78
2022/03/06 08:40:59;;;;;;;16.20;12.82;;;3.40;99.90;;;;;;5034428;28;20030;-79
2022/03/06 08:43:25;;;;;;;17.70;11.88;;;3.40;99.90;;;;;;5037937;28;20060;-79
2022/03/06 08:45:51;;;;;;;19.45;12.40;;;3.30;99.90;;;;;;5050766;28;20021;-78
2022/03/06 08:48:16;;;;;;;20.38;13.98;;;3.40;99.90;;;;;;5038843;28;20104;-80
2022/03/06 08:50:42;;;;;;;17.55;12.98;;;3.40;99.90;;;;;;5025778;28;20018;-80
2022/03/06 08:53:08;;;;;;;18.85;12.98;;;3.60;99.90;;;;;;5029075;28;20445;-79
2022/03/06 08:55:34;;;;;;;20.40;12.93;;;3.70;99.90;;;;;;5035788;28;20026;-79
2022/03/06 08:57:59;;;;;;;22.25;11.98;;;3.70;99.90;;;;;;5032299;28;20030;-79
2022/03/06 09:00:25;;;;;;;17.00;12.50;;;3.70;99.90;;;;;;5040959;28;21460;-79
2022/03/06 09:02:50;;;;;;;15.88;11.73;;;3.70;99.90;;;;;;5040726;28;20025;-78
2022/03/06 09:05:16;;;;;;;20.27;13.07;;;3.70;99.90;;;;;;5036706;28;20062;-78
2022/03/06 09:07:42;;;;;;;16.05;12.85;;;3.70;99.90;;;;;;5043061;28;20029;-79
2022/03/06 09:10:09;;;;;;;14.82;11.98;;;3.90;99.90;;;;;;5057320;28;20406;-80
2022/03/06 09:12:35;;;;;;;15.35;11.68;;;4.00;99.60;;;;;;5037494;28;20018;-79
2022/03/06 09:15:00;;;;;;;20.05;13.05;;;4.00;99.40;;;;;;5045860;28;20048;-79
2022/03/06 09:17:26;;;;;;;17.13;12.50;;;4.20;99.40;;;;;;5039938;28;20078;-79
2022/03/06 09:19:51;;;;;;;14.98;11.98;;;4.20;99.20;;;;;;5041907;28;20107;-78
2022/03/06 09:22:17;;;;;;;16.58;12.25;;;4.30;98.60;;;;;;5048351;28;20026;-77
2022/03/06 09:24:42;;;;;;;18.05;12.07;;;4.20;99.00;;;;;;5040045;28;20025;-78
2022/03/06 09:27:08;;;;;;;18.63;13.50;;;4.30;98.90;;;;;;5043805;28;20425;-79
2022/03/06 09:29:34;;;;;;;15.93;11.85;;;4.40;98.60;;;;;;5056069;28;20048;-79
2022/03/06 09:32:00;;;;;;;15.80;11.45;;;4.50;98.30;;;;;;5059357;28;20392;-79
2022/03/06 09:34:25;;;;;;;17.23;12.55;;;4.50;98.10;;;;;;5067447;28;20048;-77
2022/03/06 09:36:51;;;;;;;16.33;10.82;;;4.60;96.80;;;;;;5074273;28;20106;-78
2022/03/06 09:39:17;;;;;;;15.93;11.30;;;4.60;96.40;;;;;;5069659;28;20037;-77
2022/03/06 09:41:43;;;;;;;14.65;11.05;;;4.50;96.10;;;;;;5069159;28;20009;-77
2022/03/06 09:44:11;;;;;;;16.60;11.50;;;4.60;96.30;;;;;;5050200;28;20031;-78
2022/03/06 09:46:37;;;;;;;17.70;11.82;;;4.60;96.40;;;;;;5036369;28;20034;-78
2022/03/06 09:49:05;;;;;;;17.67;12.10;;;4.80;95.80;;;;;;5044790;28;20025;-79
2022/03/06 09:51:40;;;;;;;16.85;11.77;;;5.00;95.70;;;;;;5042477;28;20056;-78
2022/03/06 09:54:07;;;;;;;19.15;12.43;;;5.00;95.00;;;;;;5040041;28;20026;-78
2022/03/06 09:56:33;;;;;;;16.98;10.52;;;5.10;94.00;;;;;;5044950;28;20021;-81
2022/03/06 09:58:59;;;;;;;14.40;10.43;;;5.00;93.60;;;;;;5044071;28;20040;-79
2022/03/06 10:01:24;;;;;;;16.08;10.55;;;5.00;93.70;;;;;;5045953;28;20030;-79
2022/03/06 10:03:50;;;;;;;17.90;11.57;;;5.20;93.40;;;;;;5039569;28;20112;-79
2022/03/06 10:06:15;;;;;;;18.13;10.82;;;5.30;93.30;;;;;;5030689;28;20037;-79
2022/03/06 10:08:41;;;;;;;16.63;10.18;;;5.40;92.90;;;;;;5043277;28;20025;-78
2022/03/06 10:11:12;;;;;;;15.77;11.75;;;5.60;91.60;;;;;;5046354;28;20025;-79
2022/03/06 10:13:43;;;;;;;16.85;11.48;;;5.60;91.10;;;;;;5054704;28;20026;-79
2022/03/06 10:16:14;;;;;;;16.65;12.32;;;5.70;90.70;;;;;;5043514;28;20060;-78
2022/03/06 10:18:43;;;;;;;14.10;10.32;;;5.70;90.80;;;;;;5041531;28;20025;-79
2022/03/06 10:21:08;;;;;;;14.73;10.32;;;6.00;90.30;;;;;;5046229;28;20037;-79
2022/03/06 10:23:34;;;;;;;12.98;10.15;;;6.20;87.30;;;;;;5046266;28;20044;-79
2022/03/06 10:26:17;;;;;;;17.27;10.20;;;6.10;86.70;;;;;;5044706;28;20034;-80
2022/03/06 10:28:57;;;;;;;18.05;11.40;;;6.10;85.80;;;;;;5060670;28;20035;-77
2022/03/06 10:31:26;;;;;;;13.82;10.68;;;6.30;85.50;;;;;;5041396;28;20017;-79
2022/03/06 10:34:05;;;;;;;14.80;10.57;;;6.60;85.70;;;;;;5061882;28;20021;-79
2022/03/06 10:36:34;;;;;;;15.68;10.70;;;6.80;84.90;;;;;;5053424;28;20056;-79
2022/03/06 10:39:00;;;;;;;13.38;11.07;;;7.00;84.10;;;;;;5055597;28;20026;-79
2022/03/06 10:41:47;;;;;;;12.68;10.55;;;7.00;83.10;;;;;;5041168;28;20034;-81
2022/03/06 10:44:13;;;;;;;13.13;10.30;;;7.10;82.30;;;;;;5042189;28;20044;-80
2022/03/06 10:46:41;;;;;;;13.20;10.85;;;7.00;80.40;;;;;;5055570;28;20030;-79
2022/03/06 10:49:15;;;;;;;12.48;10.73;;;7.00;79.70;;;;;;5041840;28;20048;-81
2022/03/06 10:51:52;;;;;;;14.82;11.05;;;7.00;78.90;;;;;;5044729;28;20120;-79
2022/03/06 10:54:19;;;;;;;15.65;9.35;;;7.10;79.10;;;;;;5051098;28;20079;-78
2022/03/06 10:56:49;;;;;;;12.27;9.73;;;7.00;77.30;;;;;;5055582;28;20057;-79
2022/03/06 10:59:18;;;;;;;12.65;9.63;;;6.80;77.10;;;;;;5045062;28;20033;-79
2022/03/06 11:01:49;;;;;;;15.60;10.15;;;6.60;76.90;;;;;;5041528;28;20133;-79
2022/03/06 11:04:20;;;;;;;14.25;10.90;;;6.50;76.50;;;;;;5059865;28;20089;-78
2022/03/06 11:06:47;;;;;;;12.18;9.73;;;6.30;76.80;;;;;;5043665;28;20060;-78
2022/03/06 11:09:14;;;;;;;12.70;8.80;;;6.20;76.50;;;;;;5060953;28;20030;-80
2022/03/06 11:11:42;;;;;;;12.73;9.80;;;6.10;76.60;;;;;;5053108;28;20022;-79
2022/03/06 11:14:08;;;;;;;13.70;9.40;;;6.20;76.30;;;;;;5039484;28;20099;-80
2022/03/06 11:16:38;;;;;;;12.98;10.02;;;6.40;76.20;;;;;;5038343;28;20033;-79
2022/03/06 11:19:05;;;;;;;12.63;9.80;;;6.70;75.80;;;;;;5043386;28;20021;-80
2022/03/06 11:21:35;;;;;;;11.32;9.30;;;7.10;75.40;;;;;;5044610;28;20108;-79
2022/03/06 11:24:13;;;;;;;11.27;9.13;;;7.30;73.20;;;;;;5054843;28;20032;-78
2022/03/06 11:27:01;;;;;;;12.27;8.85;;;7.60;72.20;;;;;;5044802;28;20280;-79
2022/03/06 11:29:33;;;;;;;12.27;9.05;;;7.40;72.30;;;;;;5052983;28;20010;-79
2022/03/06 11:32:05;;;;;;;11.63;9.57;;;7.80;71.20;;;;;;5048766;28;20068;-77
2022/03/06 11:34:37;;;;;;;20.45;15.25;;;7.80;71.60;;;;;;5051415;28;20109;-78
2022/03/06 11:37:05;;;;;;;12.88;10.10;;;7.90;72.40;;;;;;5045625;28;20486;-80
2022/03/06 11:39:31;;;;;;;10.63;9.23;;;8.00;70.10;;;;;;5027881;28;20046;-79
2022/03/06 11:42:01;;;;;;;12.75;9.95;;;8.00;70.70;;;;;;5034649;28;20037;-80
2022/03/06 11:44:35;;;;;;;15.32;9.65;;;8.20;70.30;;;;;;5039404;28;20022;-79
2022/03/06 11:47:10;;;;;;;13.77;9.93;;;8.40;68.50;;;;;;5053973;28;20032;-80
2022/03/06 11:49:36;;;;;;;11.90;9.65;;;8.40;68.50;;;;;;5044098;28;20021;-79
2022/03/06 11:52:21;;;;;;;11.65;9.30;;;8.40;68.50;;;;;;5043968;28;20066;-79
2022/03/06 11:54:47;;;;;;;11.23;8.95;;;8.70;67.20;;;;;;5046163;28;20025;-79
2022/03/06 11:57:36;;;;;;;10.02;8.35;;;8.70;66.40;;;;;;5054896;28;20092;-80
2022/03/06 12:00:24;;;;;;;10.88;9.55;;;8.80;66.10;;;;;;5033859;28;20056;-79
2022/03/06 12:03:01;;;;;;;12.90;9.10;;;8.80;66.30;;;;;;5044531;28;20014;-80
2022/03/06 12:05:47;;;;;;;12.98;8.15;;;9.30;65.00;;;;;;5043845;28;20029;-82
2022/03/06 12:08:14;;;;;;;9.90;8.00;;;8.60;65.10;;;;;;5043532;28;20029;-81
2022/03/06 12:10:43;;;;;;;11.02;8.65;;;8.30;65.90;;;;;;5042364;28;20017;-80
2022/03/06 12:13:22;;;;;;;10.32;8.98;;;7.80;66.40;;;;;;5041755;28;20450;-79
2022/03/06 12:16:03;;;;;;;11.13;8.23;;;7.60;66.70;;;;;;5059039;28;20025;-82
2022/03/06 12:18:29;;;;;;;11.63;8.48;;;7.20;67.30;;;;;;5040076;28;20025;-80
2022/03/06 12:20:55;;;;;;;12.85;9.40;;;6.50;68.30;;;;;;5036413;28;20108;-79
2022/03/06 12:23:28;;;;;;;10.70;8.50;;;6.40;69.40;;;;;;5038577;28;20049;-79
2022/03/06 12:25:56;;;;;;;11.32;8.65;;;6.60;69.60;;;;;;5041343;28;20030;-80
2022/03/06 12:28:25;;;;;;;12.48;8.30;;;6.80;68.50;;;;;;5038667;28;20101;-80
2022/03/06 12:30:52;;;;;;;10.80;8.68;;;6.90;68.80;;;;;;5056086;28;20014;-79